createdAt,value
2018-05-06T00:01:06.486Z,9.50
2018-05-06T00:03:32.629Z,9.50
2018-05-06T00:05:58.878Z,9.50
2018-05-06T00:08:25.087Z,9.50
2018-05-06T00:10:51.238Z,9.40
2018-05-06T00:13:17.375Z,9.40
2018-05-06T00:15:43.541Z,9.40
2018-05-06T00:18:09.775Z,9.40
2018-05-06T00:20:35.941Z,9.30
2018-05-06T00:23:02.858Z,9.20
2018-05-06T00:25:43.959Z,9.20
2018-05-06T00:28:10.092Z,9.20
2018-05-06T00:30:36.295Z,9.20
2018-05-06T00:33:02.515Z,9.30
2018-05-06T00:35:29.527Z,9.30
2018-05-06T00:37:55.730Z,9.20
2018-05-06T00:40:22.647Z,9.10
2018-05-06T00:42:48.798Z,9.10
2018-05-06T00:45:15.034Z,9.00
2018-05-06T00:47:41.157Z,9.00
2018-05-06T00:50:07.302Z,9.00
2018-05-06T00:52:34.379Z,8.90
2018-05-06T00:55:00.518Z,8.80
2018-05-06T00:57:26.635Z,8.70
2018-05-06T00:59:52.784Z,8.50
2018-05-06T01:02:18.919Z,8.50
2018-05-06T01:04:45.082Z,8.60
2018-05-06T01:07:11.362Z,8.70
2018-05-06T01:09:38.266Z,8.70
2018-05-06T01:12:04.421Z,8.70
2018-05-06T01:14:30.561Z,8.70
2018-05-06T01:16:56.689Z,8.80
2018-05-06T01:19:22.882Z,8.80
2018-05-06T01:21:59.531Z,8.80
2018-05-06T01:24:25.661Z,8.80
2018-05-06T01:26:51.917Z,8.80
2018-05-06T01:29:18.029Z,8.90
2018-05-06T01:31:44.243Z,8.90
2018-05-06T01:34:11.148Z,9.00
2018-05-06T01:36:37.277Z,9.00
2018-05-06T01:39:03.437Z,9.00
2018-05-06T01:41:29.654Z,9.00
2018-05-06T01:43:56.731Z,9.00
2018-05-06T01:46:22.962Z,9.10
2018-05-06T01:48:49.090Z,9.10
2018-05-06T01:51:16.259Z,9.10
2018-05-06T01:53:42.412Z,9.20
2018-05-06T01:56:08.621Z,9.20
2018-05-06T03:14:31.694Z,8.00
2018-05-06T03:16:57.810Z,8.00
2018-05-06T03:19:23.969Z,8.00
2018-05-06T03:21:50.120Z,8.10
2018-05-06T03:24:17.075Z,8.30
2018-05-06T03:26:43.318Z,8.30
2018-05-06T03:29:09.546Z,8.40
2018-05-06T03:31:35.677Z,8.50
2018-05-06T03:34:01.826Z,8.60
2018-05-06T03:36:27.955Z,8.60
2018-05-06T03:38:54.159Z,8.70
2018-05-06T03:41:22.090Z,8.70
2018-05-06T03:43:48.236Z,8.70
2018-05-06T03:46:14.361Z,8.80
2018-05-06T03:48:40.498Z,8.80
2018-05-06T03:51:06.635Z,8.80
2018-05-06T03:53:32.775Z,8.90
2018-05-06T03:59:24.238Z,8.90
2018-05-06T04:01:53.122Z,8.90
2018-05-06T04:04:20.055Z,8.90
2018-05-06T04:06:46.262Z,8.90
2018-05-06T04:09:12.418Z,8.90
2018-05-06T04:11:43.500Z,9.00
2018-05-06T04:14:09.707Z,9.00
2018-05-06T04:16:35.858Z,9.00
2018-05-06T04:19:01.999Z,9.00
2018-05-06T04:21:29.155Z,9.00
2018-05-06T04:23:55.289Z,9.10
2018-05-06T04:26:21.430Z,9.10
2018-05-06T04:28:48.602Z,9.10
2018-05-06T04:31:14.727Z,9.20
2018-05-06T04:33:40.911Z,9.20
2018-05-06T04:36:07.111Z,9.20
2018-05-06T04:38:33.286Z,9.30
2018-05-06T04:40:59.528Z,9.30
2018-05-06T04:43:25.751Z,9.30
2018-05-06T04:45:51.882Z,9.40
2018-05-06T04:48:18.018Z,9.40
2018-05-06T04:50:44.302Z,9.50
2018-05-06T04:53:10.504Z,9.60
2018-05-06T04:55:36.696Z,9.60
2018-05-06T04:58:02.889Z,9.70
2018-05-06T05:00:29.058Z,9.70
2018-05-06T05:02:55.275Z,9.80
2018-05-06T05:05:21.422Z,9.80
2018-05-06T05:07:47.563Z,9.90
2018-05-06T05:10:13.741Z,10.00
2018-05-06T05:12:40.642Z,10.10
2018-05-06T05:15:06.790Z,10.10
2018-05-06T05:17:32.923Z,10.20
2018-05-06T05:19:59.070Z,10.30
2018-05-06T05:22:25.206Z,10.40
2018-05-06T05:24:51.351Z,10.40
2018-05-06T05:27:17.544Z,10.50
2018-05-06T05:29:43.735Z,10.70
2018-05-06T05:32:09.881Z,10.60
2018-05-06T05:34:36.020Z,10.80
2018-05-06T05:37:02.166Z,10.90
2018-05-06T05:39:28.299Z,11.00
2018-05-06T05:41:54.453Z,11.10
2018-05-06T05:44:20.599Z,11.30
2018-05-06T05:46:46.718Z,11.40
2018-05-06T05:49:13.030Z,11.50
2018-05-06T05:51:39.234Z,11.60
2018-05-06T05:54:05.439Z,11.70
2018-05-06T05:56:31.634Z,11.80
2018-05-06T05:58:57.823Z,11.90
2018-05-06T06:01:26.521Z,12.00
2018-05-06T06:03:53.523Z,12.20
2018-05-06T06:06:19.741Z,12.20
2018-05-06T06:08:46.741Z,12.30
2018-05-06T06:11:15.101Z,12.50
2018-05-06T06:13:42.159Z,12.60
2018-05-06T06:16:08.294Z,12.60
2018-05-06T06:18:34.438Z,12.70
2018-05-06T06:21:00.583Z,12.80
2018-05-06T06:23:26.710Z,12.90
2018-05-06T06:25:52.859Z,13.00
2018-05-06T06:28:18.989Z,13.10
2018-05-06T06:30:45.238Z,13.20
2018-05-06T06:33:11.399Z,13.20
2018-05-06T06:35:37.523Z,13.30
2018-05-06T06:38:03.678Z,13.50
2018-05-06T06:40:30.007Z,13.60
2018-05-06T06:42:56.145Z,13.60
2018-05-06T06:45:22.295Z,13.70
2018-05-06T06:47:48.402Z,13.90
2018-05-06T06:50:14.593Z,13.90
2018-05-06T06:52:40.715Z,14.00
2018-05-06T06:55:07.563Z,14.20
2018-05-06T06:57:33.685Z,14.20
2018-05-06T06:59:59.778Z,14.30
2018-05-06T07:02:26.394Z,14.40
2018-05-06T07:04:52.503Z,14.60
2018-05-06T07:07:18.606Z,14.60
2018-05-06T07:09:44.714Z,14.80
2018-05-06T07:12:10.875Z,14.90
2018-05-06T07:14:37.734Z,15.00
2018-05-06T07:19:58.300Z,15.20
2018-05-06T07:22:24.440Z,15.20
2018-05-06T07:24:50.551Z,15.20
2018-05-06T07:27:16.687Z,15.30
2018-05-06T07:29:42.786Z,15.50
2018-05-06T07:32:09.669Z,15.70
2018-05-06T07:34:35.810Z,15.70
2018-05-06T07:37:01.928Z,15.90
2018-05-06T07:39:28.050Z,16.00
2018-05-06T07:41:54.913Z,16.20
2018-05-06T07:44:21.846Z,16.40
2018-05-06T07:46:47.899Z,16.30
2018-05-06T07:49:14.033Z,16.50
2018-05-06T07:51:41.157Z,16.60
2018-05-06T07:54:07.285Z,16.70
2018-05-06T07:56:33.390Z,16.70
2018-05-06T07:59:00.221Z,17.00
2018-05-06T08:01:26.346Z,16.90
2018-05-06T08:03:52.473Z,17.10
2018-05-06T08:06:18.569Z,17.20
2018-05-06T08:08:45.439Z,17.30
2018-05-06T08:11:11.561Z,17.30
2018-05-06T08:13:38.627Z,17.50
2018-05-06T08:16:05.467Z,17.70
2018-05-06T08:18:31.581Z,17.60
2018-05-06T08:20:57.682Z,17.80
2018-05-06T08:23:23.803Z,18.00
2018-05-06T08:25:50.059Z,18.00
2018-05-06T08:28:16.265Z,18.10
2018-05-06T08:30:42.378Z,18.30
2018-05-06T08:33:08.659Z,18.30
2018-05-06T08:35:34.800Z,18.40
2018-05-06T08:38:00.913Z,18.50
2018-05-06T08:40:27.033Z,18.60
2018-05-06T08:42:53.140Z,18.70
2018-05-06T08:45:19.240Z,18.90
2018-05-06T08:47:45.365Z,18.90
2018-05-06T08:50:11.471Z,19.00
2018-05-06T08:52:37.593Z,19.20
2018-05-06T08:55:03.726Z,19.30
2018-05-06T08:57:30.604Z,19.20
2018-05-06T08:59:56.742Z,19.20
2018-05-06T09:02:22.872Z,19.30
2018-05-06T09:04:49.719Z,19.40
2018-05-06T09:07:16.619Z,19.40
2018-05-06T09:09:42.743Z,19.40
2018-05-06T09:12:08.865Z,19.60
2018-05-06T09:14:35.752Z,19.60
2018-05-06T09:17:02.961Z,19.60
2018-05-06T09:19:29.086Z,19.70
2018-05-06T09:21:55.198Z,19.80
2018-05-06T09:24:21.351Z,19.90
2018-05-06T09:26:47.457Z,19.80
2018-05-06T09:29:13.642Z,19.90
2018-05-06T09:31:39.771Z,20.00
2018-05-06T09:34:05.914Z,20.00
2018-05-06T09:36:32.031Z,20.10
2018-05-06T09:38:58.154Z,20.30
2018-05-06T09:41:26.081Z,20.50
2018-05-06T09:43:52.219Z,20.50
2018-05-06T09:46:19.904Z,20.60
2018-05-06T09:48:46.063Z,20.70
2018-05-06T09:51:12.298Z,20.80
2018-05-06T09:53:38.475Z,20.90
2018-05-06T09:59:16.309Z,20.80
2018-05-06T10:01:42.550Z,20.90
2018-05-06T10:04:08.666Z,20.90
2018-05-06T10:06:34.975Z,20.90
2018-05-06T10:09:01.177Z,20.90
2018-05-06T10:11:27.274Z,21.00
2018-05-06T10:13:55.399Z,21.20
2018-05-06T10:16:21.495Z,21.40
2018-05-06T10:18:47.607Z,21.40
2018-05-06T10:21:14.459Z,21.50
2018-05-06T10:23:41.332Z,21.40
2018-05-06T10:26:09.492Z,21.40
2018-05-06T10:28:35.563Z,21.50
2018-05-06T10:31:01.675Z,21.50
2018-05-06T10:33:28.544Z,21.70
2018-05-06T10:35:55.399Z,21.80
2018-05-06T10:38:23.921Z,21.90
2018-05-06T10:40:50.456Z,21.90
2018-05-06T10:43:17.650Z,21.90
2018-05-06T10:45:43.777Z,22.00
2018-05-06T10:48:09.935Z,22.10
2018-05-06T10:50:36.037Z,22.20
2018-05-06T10:53:02.162Z,22.10
2018-05-06T10:55:29.147Z,22.20
2018-05-06T10:57:56.050Z,22.30
2018-05-06T11:00:22.130Z,22.30
2018-05-06T11:02:48.984Z,22.50
2018-05-06T11:05:18.379Z,22.50
2018-05-06T11:07:44.535Z,22.50
2018-05-06T11:10:11.562Z,22.50
2018-05-06T11:12:38.335Z,22.50
2018-05-06T11:15:04.460Z,22.50
2018-05-06T11:17:30.578Z,22.60
2018-05-06T11:19:56.678Z,22.60
2018-05-06T11:22:23.526Z,22.70
2018-05-06T11:24:50.357Z,22.90
2018-05-06T11:27:16.477Z,22.90
2018-05-06T11:29:42.595Z,23.10
2018-05-06T11:32:08.735Z,22.90
2018-05-06T11:34:34.841Z,23.00
2018-05-06T11:37:01.678Z,23.10
2018-05-06T11:39:29.407Z,23.10
2018-05-06T11:41:55.498Z,23.30
2018-05-06T11:44:21.604Z,23.50
2018-05-06T11:46:48.797Z,23.60
2018-05-06T11:49:14.933Z,23.70
2018-05-06T11:51:45.265Z,23.70
2018-05-06T11:54:11.412Z,23.50
2018-05-06T11:56:37.565Z,23.50
2018-05-06T11:59:03.662Z,23.50
2018-05-06T12:01:29.771Z,23.20
2018-05-06T12:03:56.666Z,23.50
2018-05-06T12:06:22.757Z,23.50
2018-05-06T12:08:49.627Z,23.90
2018-05-06T12:11:15.730Z,23.90
2018-05-06T12:13:41.847Z,24.00
2018-05-06T12:16:07.963Z,24.10
2018-05-06T12:18:34.079Z,24.20
2018-05-06T12:21:00.367Z,24.30
2018-05-06T12:23:27.274Z,24.40
2018-05-06T12:25:54.229Z,24.60
2018-05-06T12:28:21.103Z,24.50
2018-05-06T12:30:47.206Z,24.50
2018-05-06T12:33:13.331Z,25.00
2018-05-06T12:35:40.490Z,25.50
2018-05-06T12:38:06.599Z,27.10
2018-05-06T12:40:33.716Z,28.60
2018-05-06T12:43:00.135Z,30.20
2018-05-06T12:45:26.253Z,32.10
2018-05-06T12:47:53.910Z,33.20
2018-05-06T12:50:20.779Z,35.20
2018-05-06T12:52:46.879Z,35.10
2018-05-06T12:55:12.978Z,36.00
2018-05-06T12:57:39.189Z,36.10
2018-05-06T13:00:06.041Z,36.60
2018-05-06T13:02:32.894Z,36.60
2018-05-06T13:05:00.075Z,36.40
2018-05-06T13:07:26.179Z,36.40
2018-05-06T13:09:52.322Z,36.20
2018-05-06T13:12:18.415Z,36.80
2018-05-06T13:14:44.535Z,37.50
2018-05-06T13:17:10.654Z,38.90
2018-05-06T13:19:36.751Z,39.60
2018-05-06T13:22:02.872Z,39.60
2018-05-06T13:24:29.010Z,39.40
2018-05-06T13:27:02.076Z,38.10
2018-05-06T13:29:28.183Z,37.20
2018-05-06T13:31:54.294Z,37.60
2018-05-06T13:34:20.406Z,37.70
2018-05-06T13:36:48.920Z,38.00
2018-05-06T13:39:15.156Z,38.00
2018-05-06T13:41:42.352Z,37.40
2018-05-06T13:44:08.465Z,37.70
2018-05-06T13:46:34.634Z,35.90
2018-05-06T13:49:00.739Z,37.20
2018-05-06T13:51:27.979Z,37.10
2018-05-06T13:53:54.070Z,38.30
2018-05-06T13:56:20.203Z,39.00
2018-05-06T13:58:48.163Z,37.00
2018-05-06T14:01:15.034Z,35.80
2018-05-06T14:03:41.131Z,35.80
2018-05-06T14:06:08.657Z,36.50
2018-05-06T14:08:34.805Z,36.60
2018-05-06T14:11:00.920Z,36.00
2018-05-06T14:13:27.011Z,36.90
2018-05-06T14:15:53.863Z,37.50
2018-05-06T14:18:19.987Z,37.50
2018-05-06T14:20:46.130Z,37.30
2018-05-06T14:23:12.243Z,37.90
2018-05-06T14:25:38.357Z,37.50
2018-05-06T14:28:04.497Z,38.80
2018-05-06T14:30:30.590Z,36.60
2018-05-06T14:32:56.786Z,37.60
2018-05-06T14:35:23.700Z,38.10
2018-05-06T14:37:49.803Z,38.10
2018-05-06T14:40:15.946Z,38.30
2018-05-06T14:42:42.026Z,38.10
2018-05-06T14:45:08.195Z,36.20
2018-05-06T14:47:46.454Z,36.70
2018-05-06T14:50:12.817Z,37.60
2018-05-06T14:52:38.942Z,38.40
2018-05-06T14:55:05.036Z,38.00
2018-05-06T14:57:31.154Z,37.90
2018-05-06T14:59:57.245Z,37.90
2018-05-06T15:02:23.359Z,37.10
2018-05-06T15:04:49.469Z,37.20
2018-05-06T15:07:16.333Z,38.00
2018-05-06T15:09:42.454Z,38.00
2018-05-06T15:12:08.571Z,38.30
2018-05-06T15:14:35.626Z,38.30
2018-05-06T15:17:02.505Z,36.50
2018-05-06T15:19:28.628Z,36.50
2018-05-06T15:21:54.737Z,34.70
2018-05-06T15:24:21.683Z,36.40
2018-05-06T15:26:47.858Z,36.40
2018-05-06T15:29:14.755Z,37.10
2018-05-06T15:31:40.898Z,37.20
2018-05-06T15:34:07.034Z,37.10
2018-05-06T15:36:33.161Z,37.50
2018-05-06T15:38:59.269Z,37.80
2018-05-06T15:41:27.216Z,37.00
2018-05-06T15:43:53.403Z,37.00
2018-05-06T15:46:20.248Z,36.50
2018-05-06T15:48:46.445Z,36.40
2018-05-06T15:51:12.563Z,36.40
2018-05-06T15:53:38.704Z,36.00
2018-05-06T15:56:04.798Z,35.50
2018-05-06T15:58:30.981Z,35.80
2018-05-06T16:00:57.117Z,36.20
2018-05-06T16:03:35.699Z,35.90
2018-05-06T16:06:01.812Z,35.20
2018-05-06T16:08:27.919Z,35.10
2018-05-06T16:10:54.858Z,35.00
2018-05-06T16:13:20.925Z,35.00
2018-05-06T16:15:47.032Z,34.70
2018-05-06T16:18:13.118Z,34.80
2018-05-06T16:20:39.245Z,34.60
2018-05-06T16:23:05.377Z,34.30
2018-05-06T16:25:32.227Z,34.00
2018-05-06T16:27:59.101Z,34.00
2018-05-06T16:30:25.194Z,34.00
2018-05-06T16:32:51.298Z,34.10
2018-05-06T16:35:17.386Z,34.30
2018-05-06T16:37:44.247Z,34.10
2018-05-06T16:40:10.416Z,34.10
2018-05-06T16:42:36.554Z,34.00
2018-05-06T16:45:02.704Z,33.90
2018-05-06T16:47:28.798Z,34.20
2018-05-06T16:49:54.942Z,33.90
2018-05-06T16:52:21.074Z,33.80
2018-05-06T16:54:47.191Z,33.60
2018-05-06T16:57:14.087Z,33.30
2018-05-06T16:59:40.250Z,33.30
2018-05-06T17:02:07.134Z,32.70
2018-05-06T17:04:33.272Z,32.70
2018-05-06T17:06:59.407Z,32.80
2018-05-06T17:09:25.527Z,32.40
2018-05-06T17:11:52.420Z,31.50
2018-05-06T17:14:18.544Z,31.50
2018-05-06T17:16:45.736Z,30.80
2018-05-06T17:19:11.870Z,30.10
2018-05-06T17:21:38.025Z,29.40
2018-05-06T17:24:04.150Z,28.90
2018-05-06T17:26:30.278Z,28.10
2018-05-06T17:28:56.427Z,27.70
2018-05-06T17:31:23.620Z,27.50
2018-05-06T17:33:49.727Z,27.20
2018-05-06T17:36:15.871Z,27.00
2018-05-06T17:38:41.997Z,26.60
2018-05-06T17:41:08.138Z,26.40
2018-05-06T17:43:34.243Z,26.30
2018-05-06T17:46:01.112Z,26.40
2018-05-06T17:48:28.042Z,26.60
2018-05-06T17:50:54.163Z,26.60
2018-05-06T17:53:20.286Z,26.50
2018-05-06T17:55:46.466Z,26.40
2018-05-06T17:58:12.581Z,26.30
2018-05-06T18:00:38.710Z,26.40
2018-05-06T18:03:05.883Z,26.40
2018-05-06T18:05:32.025Z,26.50
2018-05-06T18:07:58.152Z,26.60
2018-05-06T18:10:24.281Z,26.60
2018-05-06T18:12:50.404Z,26.60
2018-05-06T18:15:16.563Z,26.70
2018-05-06T18:17:42.686Z,26.60
2018-05-06T18:20:09.559Z,25.90
2018-05-06T18:22:35.697Z,25.90
2018-05-06T18:25:01.877Z,25.40
2018-05-06T18:27:28.029Z,25.10
2018-05-06T18:29:54.191Z,24.80
2018-05-06T18:32:20.395Z,24.50
2018-05-06T18:34:49.459Z,23.80
2018-05-06T18:37:15.595Z,23.80
2018-05-06T18:39:41.831Z,23.60
2018-05-06T18:42:08.718Z,23.10
2018-05-06T18:44:34.862Z,23.00
2018-05-06T18:47:01.095Z,22.80
2018-05-06T18:49:27.230Z,22.60
2018-05-06T18:51:53.419Z,22.40
2018-05-06T18:54:19.543Z,22.10
2018-05-06T18:56:55.559Z,22.00
2018-05-06T18:59:21.745Z,21.80
2018-05-06T19:01:47.924Z,21.70
2018-05-06T19:04:14.044Z,21.50
2018-05-06T19:06:40.141Z,21.40
2018-05-06T19:09:06.359Z,21.30
2018-05-06T19:11:32.493Z,21.10
2018-05-06T19:13:58.722Z,21.00
2018-05-06T19:16:24.842Z,20.90
2018-05-06T19:18:50.948Z,20.70
2018-05-06T19:21:18.047Z,20.60
2018-05-06T19:23:44.166Z,20.50
2018-05-06T19:26:10.400Z,20.40
2018-05-06T19:28:36.511Z,20.30
2018-05-06T19:31:02.614Z,20.10
2018-05-06T19:33:28.967Z,20.00
2018-05-06T19:35:55.162Z,19.90
2018-05-06T19:38:21.359Z,19.80
2018-05-06T19:40:47.487Z,19.70
2018-05-06T19:43:13.640Z,19.60
2018-05-06T19:45:39.746Z,19.40
2018-05-06T19:48:05.862Z,19.40
2018-05-06T19:50:32.764Z,19.20
2018-05-06T19:52:58.872Z,19.20
2018-05-06T19:55:24.995Z,19.10
2018-05-06T19:57:51.120Z,19.00
2018-05-06T20:00:18.028Z,18.80
2018-05-06T20:02:44.143Z,18.80
2018-05-06T20:05:10.318Z,18.80
2018-05-06T20:07:36.433Z,18.70
2018-05-06T20:10:02.567Z,18.60
2018-05-06T20:12:28.654Z,18.50
2018-05-06T20:14:54.750Z,18.50
2018-05-06T20:17:20.911Z,18.30
2018-05-06T20:19:47.098Z,18.30
2018-05-06T20:22:13.195Z,18.20
2018-05-06T20:24:39.319Z,18.20
2018-05-06T20:27:05.430Z,18.10
2018-05-06T20:29:32.323Z,18.00
2018-05-06T20:31:58.422Z,18.00
2018-05-06T20:34:25.490Z,17.90
2018-05-06T20:36:51.602Z,17.80
2018-05-06T20:39:17.711Z,17.80
2018-05-06T20:41:43.846Z,17.80
2018-05-06T20:44:12.120Z,17.70
2018-05-06T20:46:38.308Z,17.60
2018-05-06T20:49:04.423Z,17.60
2018-05-06T20:51:30.536Z,17.50
2018-05-06T20:53:56.644Z,17.40
2018-05-06T20:56:22.824Z,17.40
2018-05-06T20:58:48.923Z,17.30
2018-05-06T21:01:15.056Z,17.20
2018-05-06T21:03:41.155Z,17.20
2018-05-06T21:06:07.279Z,17.20
2018-05-06T21:08:33.400Z,17.10
2018-05-06T21:11:00.263Z,17.00
2018-05-06T21:13:27.113Z,16.90
2018-05-06T21:15:53.962Z,16.80
2018-05-06T21:18:20.084Z,16.80
2018-05-06T21:20:46.224Z,16.80
2018-05-06T21:23:12.958Z,16.80
2018-05-06T21:25:39.098Z,16.70
2018-05-06T21:28:06.328Z,16.60
2018-05-06T21:30:32.493Z,16.40
2018-05-06T21:32:58.638Z,16.20
2018-05-06T21:35:24.747Z,16.00
2018-05-06T21:37:50.863Z,15.80
2018-05-06T21:40:17.002Z,15.80
2018-05-06T21:42:43.121Z,15.70
2018-05-06T21:45:09.238Z,15.70
2018-05-06T21:47:35.340Z,15.70
2018-05-06T21:50:02.181Z,15.40
2018-05-06T21:52:29.034Z,15.30
2018-05-06T21:54:55.136Z,15.20
2018-05-06T21:57:21.259Z,15.20
2018-05-06T21:59:47.379Z,15.20
2018-05-06T22:02:13.472Z,15.10
2018-05-06T22:04:39.608Z,14.90
2018-05-06T22:07:05.704Z,14.80
2018-05-06T22:09:31.852Z,14.70
2018-05-06T22:11:57.991Z,14.60
2018-05-06T22:14:24.166Z,14.50
2018-05-06T22:16:50.270Z,14.40
2018-05-06T22:19:16.364Z,14.30
2018-05-06T22:21:42.499Z,14.10
2018-05-06T22:24:08.598Z,14.00
2018-05-06T22:26:34.705Z,14.00
2018-05-06T22:29:01.674Z,13.90
2018-05-06T22:31:28.518Z,13.80
2018-05-06T22:33:55.374Z,13.60
2018-05-06T22:36:22.207Z,13.40
2018-05-06T22:38:48.310Z,13.40
2018-05-06T22:41:14.427Z,13.30
2018-05-06T22:43:41.306Z,13.00
2018-05-06T22:46:07.424Z,13.00
2018-05-06T22:48:34.266Z,12.90
2018-05-06T22:51:01.149Z,12.80
2018-05-06T22:53:27.275Z,12.80
2018-05-06T22:55:54.114Z,12.70
2018-05-06T22:58:20.222Z,12.70
2018-05-06T23:00:46.371Z,12.80
2018-05-06T23:03:12.535Z,12.80
2018-05-06T23:05:39.495Z,12.70
2018-05-06T23:08:06.284Z,12.70
2018-05-06T23:10:32.387Z,12.70
2018-05-06T23:12:58.480Z,12.70
2018-05-06T23:15:24.591Z,12.70
2018-05-06T23:17:50.697Z,12.70
2018-05-06T23:20:16.816Z,12.60
2018-05-06T23:22:43.130Z,12.70
2018-05-06T23:25:09.240Z,12.80
2018-05-06T23:27:36.087Z,12.80
2018-05-06T23:30:02.215Z,12.80
2018-05-06T23:32:28.331Z,12.80
2018-05-06T23:34:55.496Z,12.80
2018-05-06T23:37:21.648Z,12.90
2018-05-06T23:39:47.779Z,12.90
2018-05-06T23:42:13.926Z,13.00
2018-05-06T23:44:40.105Z,12.90
2018-05-06T23:47:06.221Z,12.90
2018-05-06T23:49:32.338Z,12.90
2018-05-06T23:51:58.459Z,12.90
2018-05-06T23:54:24.565Z,12.90
2018-05-06T23:56:51.415Z,12.90
2018-05-06T23:59:18.254Z,12.90
